Main page
METAR-TAF:

METAR-TAF

Airports :

Colmar Airport

Colmar, France

latitude: 48-06-37N, longitude: 7-21-33E, elevation: 191 m

Current weather observation

The report was made 19 minutes ago, at 23:00 UTC
Wind 6 kt from the North
Temperature 16°C
Humidity 45%
Pressure 998 hPa
Visibility: 5000 m
haze

METAR: LFGA 222300Z AUTO 35006KT 5000 HZ NSC 16/04 Q0998

Time: 01:19 (23:19 UTC)


TAF: missing

Weather observations and forecasts of more than 4000 airports (METAR and TAF reports).

The available stations are represented by yellow and red dots on the map.

Hover mouse over dot to see the name of the station.

Then click to see weather observations and forecasts.

To change the map : click on the green buttons with a black cross to zoom in, on the green button with a dash to zoom out, or on the green arrows for adjacent maps.


METAR-TAF: